createdAt,value
2023-02-14T00:00:59.540Z,55.00
2023-02-14T00:03:26.622Z,50.00
2023-02-14T00:05:53.535Z,46.33
2023-02-14T00:08:20.407Z,51.67
2023-02-14T00:10:47.371Z,38.75
2023-02-14T00:13:14.913Z,53.33
2023-02-14T00:15:41.852Z,45.33
2023-02-14T00:18:08.808Z,45.67
2023-02-14T00:20:37.212Z,48.33
2023-02-14T00:23:04.130Z,46.33
2023-02-14T00:25:31.093Z,45.33
2023-02-14T00:27:58.040Z,56.67
2023-02-14T00:30:25.119Z,40.67
2023-02-14T00:32:52.045Z,44.67
2023-02-14T00:35:19.078Z,41.67
2023-02-14T00:37:47.423Z,50.33
2023-02-14T00:40:15.613Z,49.00
2023-02-14T00:42:42.487Z,45.67
2023-02-14T00:45:09.750Z,44.67
2023-02-14T00:47:36.668Z,43.33
2023-02-14T00:50:05.274Z,44.67
2023-02-14T00:52:32.433Z,54.67
2023-02-14T00:54:59.373Z,48.00
2023-02-14T00:57:26.364Z,53.67
2023-02-14T00:59:53.260Z,55.00
2023-02-14T01:02:20.190Z,32.75
2023-02-14T01:04:47.227Z,44.00
2023-02-14T01:07:14.139Z,40.25
2023-02-14T01:09:41.023Z,27.50
2023-02-14T01:12:08.227Z,35.75
2023-02-14T01:14:35.197Z,34.00
2023-02-14T01:17:02.107Z,40.50
2023-02-14T01:19:29.088Z,27.25
2023-02-14T01:21:56.025Z,35.75
2023-02-14T01:24:23.000Z,36.00
2023-02-14T01:26:49.896Z,36.75
2023-02-14T01:29:16.785Z,29.75
2023-02-14T01:31:45.249Z,31.00
2023-02-14T01:34:12.152Z,35.00
2023-02-14T01:36:40.407Z,26.00
2023-02-14T01:39:11.055Z,31.25
2023-02-14T01:41:39.302Z,30.50
2023-02-14T01:44:08.330Z,38.00
2023-02-14T01:46:37.990Z,35.50
2023-02-14T01:49:28.597Z,40.25
2023-02-14T01:52:08.588Z,32.75
2023-02-14T01:54:38.979Z,27.75
2023-02-14T01:57:11.158Z,34.25
2023-02-14T01:59:43.868Z,24.50
2023-02-14T02:02:11.247Z,40.25
2023-02-14T02:04:43.285Z,34.25
2023-02-14T02:07:40.067Z,43.00
2023-02-14T02:10:29.621Z,41.67
2023-02-14T02:13:30.644Z,45.33
2023-02-14T02:16:27.246Z,49.00
2023-02-14T02:19:42.101Z,41.33
2023-02-14T02:22:49.415Z,48.67
2023-02-14T02:25:19.360Z,46.67
2023-02-14T02:28:25.633Z,33.50
2023-02-14T02:31:20.095Z,35.00
2023-02-14T02:34:07.912Z,38.67
2023-02-14T02:36:59.244Z,41.25
2023-02-14T02:39:29.116Z,32.75
2023-02-14T02:42:26.146Z,47.00
2023-02-14T02:44:59.020Z,45.67
2023-02-14T02:47:28.758Z,43.67
2023-02-14T02:50:39.189Z,44.00
2023-02-14T02:53:24.979Z,31.00
2023-02-14T02:56:19.674Z,38.00
2023-02-14T02:58:59.210Z,35.00
2023-02-14T03:01:34.152Z,31.75
2023-02-14T03:04:23.649Z,39.00
2023-02-14T03:06:51.956Z,43.33
2023-02-14T03:09:27.964Z,42.33
2023-02-14T03:12:09.682Z,34.50
2023-02-14T03:15:07.133Z,32.00
2023-02-14T03:18:02.926Z,35.00
2023-02-14T03:21:07.076Z,33.00
2023-02-14T03:23:40.261Z,26.00
2023-02-14T03:26:27.522Z,39.00
2023-02-14T03:29:06.636Z,39.50
2023-02-14T03:31:56.129Z,32.75
2023-02-14T03:34:57.930Z,29.75
2023-02-14T03:37:52.527Z,34.33
2023-02-14T03:40:38.228Z,41.00
2023-02-14T03:43:24.829Z,39.50
2023-02-14T03:46:10.799Z,35.25
2023-02-14T03:48:40.414Z,34.75
2023-02-14T03:51:11.941Z,38.25
2023-02-14T03:53:44.032Z,23.00
2023-02-14T03:56:14.506Z,16.50
2023-02-14T03:58:51.309Z,17.50
2023-02-14T04:01:35.300Z,22.50
2023-02-14T04:04:04.750Z,31.75
2023-02-14T04:06:31.684Z,23.25
2023-02-14T04:08:58.583Z,24.00
2023-02-14T04:11:25.518Z,24.50
2023-02-14T04:13:52.399Z,24.50
2023-02-14T04:16:19.370Z,24.00
2023-02-14T04:19:05.144Z,41.33
2023-02-14T04:21:32.114Z,39.00
2023-02-14T04:23:59.010Z,48.00
2023-02-14T04:26:25.930Z,29.00
2023-02-14T04:28:52.889Z,21.25
2023-02-14T04:31:19.839Z,20.00
2023-02-14T04:33:48.351Z,27.00
2023-02-14T04:36:15.234Z,39.50
2023-02-14T04:38:42.187Z,33.75
2023-02-14T04:41:09.147Z,32.00
2023-02-14T04:43:36.193Z,27.25
2023-02-14T04:46:03.115Z,26.25
2023-02-14T04:48:30.066Z,19.00
2023-02-14T04:50:57.194Z,23.00
2023-02-14T04:53:24.302Z,16.75
2023-02-14T04:55:51.540Z,13.25
2023-02-14T04:58:18.848Z,8.00
2023-02-14T05:00:45.984Z,10.25
2023-02-14T05:03:12.906Z,8.75
2023-02-14T05:05:39.856Z,11.75
2023-02-14T05:08:06.826Z,10.75
2023-02-14T05:10:33.794Z,7.25
2023-02-14T05:13:01.502Z,10.25
2023-02-14T05:15:28.381Z,13.00
2023-02-14T05:17:55.273Z,9.25
2023-02-14T05:20:22.268Z,7.00
2023-02-14T05:22:49.201Z,5.75
2023-02-14T05:25:16.098Z,6.00
2023-02-14T05:27:42.971Z,8.25
2023-02-14T05:30:10.623Z,8.75
2023-02-14T05:32:37.566Z,5.25
2023-02-14T05:35:05.501Z,6.00
2023-02-14T05:37:32.420Z,6.75
2023-02-14T05:39:59.482Z,5.00
2023-02-14T05:42:26.511Z,6.00
2023-02-14T05:44:53.377Z,6.25
2023-02-14T05:47:20.323Z,3.00
2023-02-14T05:49:47.217Z,6.00
2023-02-14T05:52:14.132Z,3.50
2023-02-14T05:54:41.129Z,5.25
2023-02-14T05:57:08.333Z,2.50
2023-02-14T05:59:35.303Z,3.50
2023-02-14T06:02:02.245Z,1.75
2023-02-14T06:04:29.286Z,5.00
2023-02-14T06:06:56.185Z,6.00
2023-02-14T06:09:23.135Z,3.50
2023-02-14T06:11:50.358Z,8.50
2023-02-14T06:14:17.542Z,9.00
2023-02-14T06:16:44.591Z,5.25
2023-02-14T06:19:11.509Z,5.00
2023-02-14T06:21:38.394Z,9.00
2023-02-14T06:24:05.369Z,10.25
2023-02-14T06:26:33.178Z,9.00
2023-02-14T06:29:00.140Z,6.50
2023-02-14T06:31:27.178Z,5.00
2023-02-14T06:33:55.159Z,16.25
2023-02-14T06:36:23.686Z,18.25
2023-02-14T06:38:50.674Z,20.25
2023-02-14T06:41:17.730Z,18.50
2023-02-14T06:43:46.406Z,15.00
2023-02-14T06:46:13.331Z,19.00
2023-02-14T06:48:40.423Z,23.75
2023-02-14T06:51:07.436Z,17.25
2023-02-14T06:53:34.550Z,28.00
2023-02-14T06:56:01.626Z,15.50
2023-02-14T06:58:28.539Z,20.00
2023-02-14T07:00:56.413Z,15.25
2023-02-14T07:03:23.810Z,26.00
2023-02-14T07:05:51.087Z,27.50
2023-02-14T07:08:18.370Z,19.25
2023-02-14T07:10:45.289Z,32.25
2023-02-14T07:13:12.211Z,29.75
2023-02-14T07:15:39.235Z,25.25
2023-02-14T07:18:08.903Z,36.75
2023-02-14T07:20:35.787Z,25.25
2023-02-14T07:23:03.238Z,33.25
2023-02-14T07:25:30.224Z,37.75
2023-02-14T07:27:57.202Z,42.00
2023-02-14T07:30:25.368Z,48.67
2023-02-14T07:32:52.412Z,56.33
2023-02-14T07:35:19.383Z,56.67
2023-02-14T07:37:46.287Z,63.67
2023-02-14T07:40:15.200Z,59.67
2023-02-14T07:42:43.040Z,46.67
2023-02-14T07:45:21.128Z,59.00
2023-02-14T07:47:50.565Z,50.25
2023-02-14T07:50:17.930Z,53.33
2023-02-14T07:52:45.461Z,55.00
2023-02-14T07:55:12.692Z,57.33
2023-02-14T07:57:39.686Z,50.67
2023-02-14T08:00:07.638Z,51.33
2023-02-14T08:02:34.654Z,39.50
2023-02-14T08:05:01.681Z,40.75
2023-02-14T08:07:28.621Z,45.75
2023-02-14T08:09:55.537Z,43.50
2023-02-14T08:12:40.867Z,38.25
2023-02-14T08:15:26.806Z,37.50
2023-02-14T08:17:53.717Z,39.75
2023-02-14T08:20:20.712Z,45.00
2023-02-14T08:22:47.615Z,32.75
2023-02-14T08:25:14.698Z,33.00
2023-02-14T08:27:41.625Z,34.50
2023-02-14T08:30:09.073Z,27.00
2023-02-14T08:32:36.217Z,53.67
2023-02-14T08:35:03.323Z,36.25
2023-02-14T08:37:30.254Z,40.75
2023-02-14T08:39:57.144Z,34.75
2023-02-14T08:42:24.084Z,35.50
2023-02-14T08:44:51.012Z,43.50
2023-02-14T08:47:17.931Z,33.75
2023-02-14T08:49:44.935Z,33.75
2023-02-14T08:52:11.873Z,25.75
2023-02-14T08:54:38.779Z,37.25
2023-02-14T08:57:05.956Z,35.50
2023-02-14T08:59:32.904Z,35.75
2023-02-14T09:01:59.828Z,39.75
2023-02-14T09:04:26.864Z,30.50
2023-02-14T09:06:53.795Z,37.75
2023-02-14T09:09:20.910Z,30.00
2023-02-14T09:11:47.892Z,38.25
2023-02-14T09:14:16.479Z,32.25
2023-02-14T09:16:43.477Z,33.00
2023-02-14T09:19:10.553Z,31.00
2023-02-14T09:21:37.473Z,36.00
2023-02-14T09:24:04.486Z,37.25
2023-02-14T09:26:31.480Z,36.00
2023-02-14T09:28:58.452Z,32.00
2023-02-14T09:31:26.132Z,38.25
2023-02-14T09:33:53.132Z,32.75
2023-02-14T09:36:20.083Z,41.50
2023-02-14T09:38:47.204Z,43.25
2023-02-14T09:41:47.462Z,33.50
2023-02-14T09:44:35.913Z,38.75
2023-02-14T09:47:22.380Z,42.25
2023-02-14T09:49:51.564Z,40.50
2023-02-14T09:52:21.710Z,38.50
2023-02-14T09:54:55.684Z,41.00
2023-02-14T09:57:45.302Z,35.25
2023-02-14T10:00:27.605Z,42.25
2023-02-14T10:03:00.632Z,36.50
2023-02-14T10:05:32.215Z,39.25
2023-02-14T10:08:25.296Z,37.75
2023-02-14T10:11:14.772Z,34.50
2023-02-14T10:13:50.464Z,35.75
2023-02-14T10:16:21.101Z,33.50
2023-02-14T10:19:14.237Z,34.00
2023-02-14T10:22:08.720Z,37.50
2023-02-14T10:25:28.043Z,31.25
2023-02-14T10:27:58.543Z,27.25
2023-02-14T10:30:26.180Z,32.75
2023-02-14T10:33:08.263Z,35.75
2023-02-14T10:35:47.158Z,31.00
2023-02-14T10:38:32.446Z,35.00
2023-02-14T10:41:14.151Z,27.75
2023-02-14T10:43:41.015Z,29.75
2023-02-14T10:46:18.106Z,20.50
2023-02-14T10:49:00.530Z,28.00
2023-02-14T10:51:47.038Z,31.75
2023-02-14T10:54:20.210Z,22.75
2023-02-14T10:56:57.515Z,20.00
2023-02-14T10:59:35.795Z,16.25
2023-02-14T11:02:04.650Z,24.00
2023-02-14T11:04:32.535Z,14.00
2023-02-14T11:06:59.487Z,18.75
2023-02-14T11:09:26.453Z,21.00
2023-02-14T11:11:59.017Z,27.50
2023-02-14T11:14:32.720Z,22.25
2023-02-14T11:17:00.936Z,18.50
2023-02-14T11:19:37.179Z,22.25
2023-02-14T11:22:04.983Z,21.50
2023-02-14T11:24:38.747Z,21.00
2023-02-14T11:27:17.972Z,23.00
2023-02-14T11:29:53.198Z,25.75
2023-02-14T11:32:26.399Z,26.75
2023-02-14T11:35:18.287Z,17.00
2023-02-14T11:37:51.320Z,22.75
2023-02-14T11:40:33.166Z,22.75
2023-02-14T11:43:14.791Z,22.75
2023-02-14T11:45:45.358Z,26.25
2023-02-14T11:48:37.315Z,30.75
2023-02-14T11:51:14.867Z,20.50
2023-02-14T11:53:55.343Z,21.75
2023-02-14T11:56:24.123Z,24.00
2023-02-14T11:58:56.579Z,22.75
2023-02-14T12:01:31.165Z,18.00
2023-02-14T12:04:02.756Z,19.75
2023-02-14T12:06:32.824Z,20.50
2023-02-14T12:09:24.669Z,17.75
2023-02-14T12:12:01.913Z,16.75
2023-02-14T12:14:36.202Z,20.50
2023-02-14T12:17:12.112Z,23.00
2023-02-14T12:19:49.149Z,20.00
2023-02-14T12:22:43.729Z,21.00
2023-02-14T12:25:23.047Z,17.25
2023-02-14T12:28:05.654Z,16.25
2023-02-14T12:30:34.938Z,13.00
2023-02-14T12:33:02.508Z,17.50
2023-02-14T12:35:41.528Z,13.00
2023-02-14T12:38:24.272Z,21.25
2023-02-14T12:41:17.441Z,18.25
2023-02-14T12:43:54.369Z,23.00
2023-02-14T12:46:23.967Z,19.75
2023-02-14T12:48:53.913Z,18.25
2023-02-14T12:51:29.011Z,19.75
2023-02-14T12:54:16.697Z,16.50
2023-02-14T12:57:05.099Z,22.00
2023-02-14T13:00:03.391Z,23.75
2023-02-14T13:03:00.694Z,20.75
2023-02-14T13:05:30.562Z,19.50
2023-02-14T13:08:27.793Z,19.50
2023-02-14T13:11:15.917Z,20.00
2023-02-14T13:14:07.526Z,20.75
2023-02-14T13:16:57.650Z,18.25
2023-02-14T13:19:43.401Z,19.75
2023-02-14T13:22:18.090Z,20.75
2023-02-14T13:24:51.014Z,21.00
2023-02-14T13:27:24.752Z,19.75
2023-02-14T13:30:03.276Z,21.00
2023-02-14T13:32:37.777Z,20.75
2023-02-14T13:35:06.812Z,20.75
2023-02-14T13:37:35.479Z,19.00
2023-02-14T13:40:16.067Z,20.50
2023-02-14T13:42:49.134Z,16.00
2023-02-14T13:45:52.400Z,18.75
2023-02-14T13:48:26.155Z,17.00
2023-02-14T13:51:02.752Z,18.75
2023-02-14T13:53:29.749Z,17.75
2023-02-14T13:55:56.885Z,15.50
2023-02-14T13:58:25.928Z,20.25
2023-02-14T14:00:53.823Z,16.75
2023-02-14T14:03:30.049Z,23.25
2023-02-14T14:06:11.140Z,19.50
2023-02-14T14:08:47.991Z,18.00
2023-02-14T14:11:23.728Z,16.50
2023-02-14T14:13:59.862Z,24.75
2023-02-14T14:16:30.209Z,22.00
2023-02-14T14:19:02.054Z,23.25
2023-02-14T14:21:46.520Z,21.25
2023-02-14T14:24:30.454Z,21.00
2023-02-14T14:27:01.573Z,23.00
2023-02-14T14:29:39.258Z,23.00
2023-02-14T14:32:18.460Z,20.50
2023-02-14T14:34:51.104Z,17.75
2023-02-14T14:37:21.906Z,19.00
2023-02-14T14:39:58.305Z,12.00
2023-02-14T14:42:29.485Z,23.50
2023-02-14T14:44:59.822Z,23.25
2023-02-14T14:47:29.581Z,21.75
2023-02-14T14:50:10.472Z,20.50
2023-02-14T14:53:02.989Z,24.75
2023-02-14T14:55:33.529Z,27.75
2023-02-14T14:58:06.265Z,17.75
2023-02-14T15:00:38.758Z,28.50
2023-02-14T15:03:12.134Z,25.00
2023-02-14T15:05:39.099Z,28.50
2023-02-14T15:08:33.031Z,29.75
2023-02-14T15:11:39.896Z,36.75
2023-02-14T15:14:13.605Z,26.50
2023-02-14T15:16:50.730Z,23.00
2023-02-14T15:19:26.976Z,21.00
2023-02-14T15:21:53.915Z,21.00
2023-02-14T15:24:20.947Z,22.00
2023-02-14T15:26:49.280Z,16.00
2023-02-14T15:29:28.911Z,26.25
2023-02-14T15:31:59.855Z,27.00
2023-02-14T15:34:32.960Z,24.75
2023-02-14T15:37:06.695Z,27.75
2023-02-14T15:39:41.101Z,22.75
2023-02-14T15:42:26.227Z,24.25
2023-02-14T15:45:28.007Z,20.25
2023-02-14T15:48:02.516Z,15.75
2023-02-14T15:50:32.449Z,19.00
2023-02-14T15:53:09.209Z,14.00
2023-02-14T15:55:37.120Z,17.25
2023-02-14T15:58:07.386Z,16.25
2023-02-14T16:00:35.801Z,22.75
2023-02-14T16:03:07.921Z,23.25
2023-02-14T16:05:35.058Z,21.00
2023-02-14T16:08:07.978Z,25.75
2023-02-14T16:10:36.784Z,24.25
2023-02-14T16:13:19.741Z,27.75
2023-02-14T16:16:07.289Z,27.75
2023-02-14T16:18:38.680Z,29.00
2023-02-14T16:21:13.378Z,29.00
2023-02-14T16:23:41.043Z,29.25
2023-02-14T16:26:08.471Z,34.50
2023-02-14T16:28:39.012Z,33.50
2023-02-14T16:31:11.558Z,30.00
2023-02-14T16:33:40.325Z,15.00
2023-02-14T16:36:22.991Z,41.00
2023-02-14T16:38:51.003Z,32.00
2023-02-14T16:41:21.227Z,26.25
2023-02-14T16:43:49.532Z,26.00
2023-02-14T16:46:21.486Z,15.50
2023-02-14T16:48:52.871Z,19.00
2023-02-14T16:51:23.333Z,21.25
2023-02-14T16:53:51.162Z,21.50
2023-02-14T16:56:24.253Z,26.75
2023-02-14T16:58:51.163Z,25.50
2023-02-14T17:01:18.130Z,23.50
2023-02-14T17:03:45.051Z,23.50
2023-02-14T17:06:17.181Z,19.00
2023-02-14T17:08:45.306Z,21.25
2023-02-14T17:11:12.380Z,16.00
2023-02-14T17:13:42.109Z,11.25
2023-02-14T17:16:12.012Z,26.00
2023-02-14T17:18:40.959Z,30.50
2023-02-14T17:21:07.835Z,30.50
2023-02-14T17:23:34.887Z,27.00
2023-02-14T17:26:01.876Z,28.50
2023-02-14T17:28:28.738Z,22.00
2023-02-14T17:30:55.911Z,26.75
2023-02-14T17:33:23.208Z,32.00
2023-02-14T17:35:51.226Z,26.25
2023-02-14T17:38:18.858Z,16.75
2023-02-14T17:40:45.870Z,13.50
2023-02-14T17:43:12.740Z,14.00
2023-02-14T17:45:39.666Z,10.25
2023-02-14T17:48:06.786Z,10.50
2023-02-14T17:50:33.680Z,27.50
2023-02-14T17:53:00.607Z,17.50
2023-02-14T17:55:27.594Z,12.00
2023-02-14T17:57:54.593Z,8.75
2023-02-14T18:00:23.232Z,16.25
2023-02-14T18:02:50.419Z,17.25
2023-02-14T18:05:17.366Z,14.00
2023-02-14T18:07:45.129Z,20.00
2023-02-14T18:10:12.771Z,17.25
2023-02-14T18:12:39.834Z,14.00
2023-02-14T18:15:06.993Z,14.75
2023-02-14T18:17:33.891Z,14.25
2023-02-14T18:20:00.948Z,14.75
2023-02-14T18:22:28.645Z,8.00
2023-02-14T18:24:58.892Z,15.25
2023-02-14T18:27:26.450Z,10.25
2023-02-14T18:29:53.588Z,8.00
2023-02-14T18:32:20.520Z,8.75
2023-02-14T18:34:47.425Z,6.25
2023-02-14T18:37:14.730Z,7.00
2023-02-14T18:39:41.694Z,7.75
2023-02-14T18:42:08.736Z,6.00
2023-02-14T18:44:35.981Z,15.25
2023-02-14T18:47:03.002Z,9.75
2023-02-14T18:49:29.971Z,19.00
2023-02-14T18:51:59.007Z,23.25
2023-02-14T18:54:26.027Z,24.00
2023-02-14T18:56:52.982Z,21.75
2023-02-14T18:59:19.914Z,9.25
2023-02-14T19:01:47.406Z,10.25
2023-02-14T19:04:14.869Z,23.00
2023-02-14T19:06:42.648Z,17.75
2023-02-14T19:09:14.961Z,24.75
2023-02-14T19:11:42.377Z,15.00
2023-02-14T19:14:10.588Z,23.75
2023-02-14T19:16:44.057Z,22.25
2023-02-14T19:19:11.231Z,22.00
2023-02-14T19:21:38.516Z,21.25
2023-02-14T19:24:09.192Z,21.00
2023-02-14T19:26:40.589Z,26.50
2023-02-14T19:29:17.025Z,24.25
2023-02-14T19:31:48.650Z,16.50
2023-02-14T19:34:21.885Z,12.50
2023-02-14T19:36:50.338Z,12.25
2023-02-14T19:39:17.593Z,6.00
2023-02-14T19:41:45.152Z,8.50
2023-02-14T19:44:17.549Z,6.75
2023-02-14T19:46:46.527Z,6.50
2023-02-14T19:49:19.063Z,3.50
2023-02-14T19:51:47.894Z,6.00
2023-02-14T19:54:15.701Z,6.00
2023-02-14T19:56:45.221Z,5.25
2023-02-14T19:59:15.466Z,1.50
2023-02-14T20:01:46.525Z,3.00
2023-02-14T20:04:16.411Z,2.00
2023-02-14T20:06:45.055Z,2.00
2023-02-14T20:09:12.494Z,2.00
2023-02-14T20:11:46.791Z,1.00
2023-02-14T20:14:14.761Z,2.25
2023-02-14T20:16:41.751Z,2.00
2023-02-14T20:19:12.384Z,2.50
2023-02-14T20:21:44.292Z,3.25
2023-02-14T20:24:13.490Z,4.25
2023-02-14T20:26:41.876Z,5.75
2023-02-14T20:29:10.837Z,4.00
2023-02-14T20:31:41.840Z,1.50
2023-02-14T20:34:09.382Z,5.50
2023-02-14T20:36:37.020Z,3.50
2023-02-14T20:39:08.000Z,1.50
2023-02-14T20:41:36.241Z,1.50
2023-02-14T20:44:08.807Z,1.00
2023-02-14T20:46:36.658Z,3.50
2023-02-14T20:49:04.033Z,0.00
2023-02-14T20:51:31.210Z,2.00
2023-02-14T20:53:58.374Z,4.50
2023-02-14T20:56:25.424Z,10.00
2023-02-14T20:58:52.295Z,17.50
2023-02-14T21:01:24.158Z,12.75
2023-02-14T21:03:52.743Z,7.75
2023-02-14T21:06:29.271Z,6.50
2023-02-14T21:08:56.692Z,1.00
2023-02-14T21:11:24.896Z,10.25
2023-02-14T21:14:00.246Z,3.00
2023-02-14T21:16:28.772Z,6.00
2023-02-14T21:19:01.272Z,4.00
2023-02-14T21:21:34.984Z,2.00
2023-02-14T21:24:13.282Z,10.00
2023-02-14T21:26:41.668Z,8.00
2023-02-14T21:29:09.030Z,11.25
2023-02-14T21:31:36.917Z,12.00
2023-02-14T21:34:05.041Z,6.50
2023-02-14T21:36:37.409Z,11.00
2023-02-14T21:39:06.799Z,10.50
2023-02-14T21:41:35.660Z,14.75
2023-02-14T21:44:03.311Z,23.00
2023-02-14T21:46:38.545Z,19.50
2023-02-14T21:49:25.417Z,29.00
2023-02-14T21:51:52.323Z,20.75
2023-02-14T21:54:19.271Z,18.25
2023-02-14T21:56:46.334Z,26.00
2023-02-14T21:59:16.351Z,17.00
2023-02-14T22:01:43.589Z,16.25
2023-02-14T22:04:12.591Z,22.75
2023-02-14T22:06:41.221Z,22.50
2023-02-14T22:09:08.957Z,14.25
2023-02-14T22:11:35.950Z,18.25
2023-02-14T22:14:02.937Z,14.50
2023-02-14T22:16:30.044Z,10.75
2023-02-14T22:18:56.990Z,20.75
2023-02-14T22:21:26.138Z,10.00
2023-02-14T22:23:54.179Z,15.00
2023-02-14T22:26:28.306Z,28.75
2023-02-14T22:28:57.452Z,36.25
2023-02-14T22:31:26.137Z,25.50
2023-02-14T22:33:54.043Z,18.75
2023-02-14T22:36:21.269Z,15.75
2023-02-14T22:38:48.205Z,30.00
2023-02-14T22:41:18.344Z,32.25
2023-02-14T22:43:46.077Z,28.25
2023-02-14T22:46:15.658Z,32.50
2023-02-14T22:48:43.017Z,18.00
2023-02-14T22:51:30.275Z,15.50
2023-02-14T22:54:00.337Z,10.75
2023-02-14T22:56:27.169Z,10.75
2023-02-14T22:59:00.167Z,11.00
2023-02-14T23:01:27.997Z,10.50
2023-02-14T23:03:57.244Z,4.00
2023-02-14T23:06:28.482Z,9.50
2023-02-14T23:08:56.596Z,14.00
2023-02-14T23:11:28.633Z,7.50
2023-02-14T23:14:15.225Z,13.50
2023-02-14T23:17:03.128Z,12.00
2023-02-14T23:19:51.110Z,14.75
2023-02-14T23:22:32.522Z,21.75
2023-02-14T23:25:02.140Z,14.25
2023-02-14T23:27:35.798Z,12.25
2023-02-14T23:30:03.417Z,14.00
2023-02-14T23:32:30.410Z,13.50
2023-02-14T23:34:58.433Z,21.25
2023-02-14T23:37:25.452Z,17.50
2023-02-14T23:39:52.398Z,26.25
2023-02-14T23:42:19.471Z,30.75
2023-02-14T23:44:47.446Z,25.50
2023-02-14T23:47:15.359Z,22.75
2023-02-14T23:49:43.074Z,19.75
2023-02-14T23:52:12.215Z,26.00
2023-02-14T23:54:39.935Z,26.00
2023-02-14T23:57:07.677Z,26.75
2023-02-14T23:59:34.785Z,22.00
